createdAt,value
2023-02-08T00:00:39.858Z,100.00
2023-02-08T00:01:24.425Z,100.00
2023-02-08T00:02:06.143Z,100.00
2023-02-08T00:02:48.160Z,100.00
2023-02-08T00:03:29.838Z,100.00
2023-02-08T00:04:11.511Z,100.00
2023-02-08T00:04:53.168Z,100.00
2023-02-08T00:05:34.939Z,100.00
2023-02-08T00:06:17.634Z,100.00
2023-02-08T00:06:59.382Z,100.00
2023-02-08T00:07:41.083Z,100.00
2023-02-08T00:08:22.808Z,100.00
2023-02-08T00:09:04.536Z,100.00
2023-02-08T00:09:46.252Z,100.00
2023-02-08T00:10:28.121Z,100.00
2023-02-08T00:11:10.756Z,100.00
2023-02-08T00:11:52.529Z,100.00
2023-02-08T00:12:34.647Z,100.00
2023-02-08T00:13:16.846Z,100.00
2023-02-08T00:13:58.541Z,100.00
2023-02-08T00:14:40.305Z,100.00
2023-02-08T00:15:22.396Z,100.00
2023-02-08T00:16:04.662Z,100.00
2023-02-08T00:16:46.638Z,100.00
2023-02-08T00:17:28.747Z,100.00
2023-02-08T00:18:10.750Z,100.00
2023-02-08T00:18:52.446Z,100.00
2023-02-08T00:19:34.087Z,100.00
2023-02-08T00:20:15.966Z,100.00
2023-02-08T00:20:57.743Z,100.00
2023-02-08T00:21:39.564Z,100.00
2023-02-08T00:22:21.320Z,100.00
2023-02-08T00:23:02.989Z,100.00
2023-02-08T00:23:44.927Z,100.00
2023-02-08T00:24:26.684Z,100.00
2023-02-08T00:25:08.857Z,100.00
2023-02-08T00:25:50.736Z,100.00
2023-02-08T00:26:32.526Z,100.00
2023-02-08T00:27:14.271Z,100.00
2023-02-08T00:27:55.918Z,100.00
2023-02-08T00:28:37.833Z,100.00
2023-02-08T00:29:19.675Z,100.00
2023-02-08T00:30:01.464Z,100.00
2023-02-08T00:30:46.095Z,100.00
2023-02-08T00:31:29.753Z,100.00
2023-02-08T00:32:11.533Z,100.00
2023-02-08T00:32:53.332Z,100.00
2023-02-08T00:33:35.198Z,100.00
2023-02-08T00:34:16.904Z,100.00
2023-02-08T00:34:59.026Z,100.00
2023-02-08T00:35:42.171Z,100.00
2023-02-08T00:36:23.824Z,100.00
2023-02-08T00:37:06.500Z,100.00
2023-02-08T00:37:48.191Z,100.00
2023-02-08T00:38:29.895Z,100.00
2023-02-08T00:39:11.501Z,100.00
2023-02-08T00:39:53.946Z,100.00
2023-02-08T00:40:35.731Z,100.00
2023-02-08T00:41:17.457Z,100.00
2023-02-08T00:42:01.362Z,100.00
2023-02-08T00:42:43.387Z,100.00
2023-02-08T00:43:25.344Z,100.00
2023-02-08T00:44:07.027Z,100.00
2023-02-08T00:44:50.337Z,100.00
2023-02-08T00:45:33.000Z,100.00
2023-02-08T00:46:14.696Z,100.00
2023-02-08T00:46:56.355Z,100.00
2023-02-08T00:47:38.099Z,100.00
2023-02-08T00:48:19.753Z,100.00
2023-02-08T00:49:01.470Z,100.00
2023-02-08T00:49:43.141Z,100.00
2023-02-08T00:50:25.211Z,100.00
2023-02-08T00:51:11.869Z,100.00
2023-02-08T00:51:53.482Z,100.00
2023-02-08T00:52:35.142Z,100.00
2023-02-08T00:53:16.779Z,100.00
2023-02-08T00:53:58.473Z,100.00
2023-02-08T00:54:41.918Z,100.00
2023-02-08T00:55:23.653Z,100.00
2023-02-08T00:56:06.397Z,100.00
2023-02-08T00:56:48.224Z,100.00
2023-02-08T00:57:32.147Z,100.00
2023-02-08T00:58:13.812Z,100.00
2023-02-08T00:58:55.531Z,100.00
2023-02-08T00:59:37.324Z,100.00
2023-02-08T01:00:19.217Z,100.00
2023-02-08T01:01:01.747Z,100.00
2023-02-08T01:01:46.039Z,100.00
2023-02-08T01:02:28.161Z,100.00
2023-02-08T01:03:10.298Z,100.00
2023-02-08T01:03:51.933Z,100.00
2023-02-08T01:04:33.890Z,100.00
2023-02-08T01:05:15.555Z,100.00
2023-02-08T01:06:01.568Z,100.00
2023-02-08T01:06:43.199Z,100.00
2023-02-08T01:07:26.563Z,100.00
2023-02-08T01:08:08.246Z,100.00
2023-02-08T01:08:49.931Z,100.00
2023-02-08T01:09:32.432Z,100.00
2023-02-08T01:10:14.208Z,100.00
2023-02-08T01:11:07.072Z,100.00
2023-02-08T01:11:48.712Z,100.00
2023-02-08T01:12:30.743Z,100.00
2023-02-08T01:13:12.429Z,100.00
2023-02-08T01:13:57.346Z,100.00
2023-02-08T01:14:40.043Z,100.00
2023-02-08T01:15:21.668Z,100.00
2023-02-08T01:16:18.091Z,100.00
2023-02-08T01:17:00.015Z,100.00
2023-02-08T01:17:41.666Z,100.00
2023-02-08T01:18:23.824Z,100.00
2023-02-08T01:19:06.301Z,100.00
2023-02-08T01:19:50.305Z,100.00
2023-02-08T01:20:36.318Z,100.00
2023-02-08T01:21:21.804Z,100.00
2023-02-08T01:22:03.582Z,100.00
2023-02-08T01:22:45.199Z,100.00
2023-02-08T01:23:26.853Z,100.00
2023-02-08T01:24:09.658Z,100.00
2023-02-08T01:24:51.368Z,100.00
2023-02-08T01:25:33.035Z,100.00
2023-02-08T01:26:16.716Z,100.00
2023-02-08T01:27:00.248Z,100.00
2023-02-08T01:27:42.223Z,100.00
2023-02-08T01:28:23.876Z,100.00
2023-02-08T01:29:05.720Z,100.00
2023-02-08T01:29:47.374Z,100.00
2023-02-08T01:30:29.082Z,100.00
2023-02-08T01:31:14.181Z,100.00
2023-02-08T01:31:55.947Z,100.00
2023-02-08T01:32:37.631Z,100.00
2023-02-08T01:33:19.443Z,100.00
2023-02-08T01:34:01.827Z,100.00
2023-02-08T01:34:44.280Z,100.00
2023-02-08T01:35:26.193Z,100.00
2023-02-08T01:36:09.029Z,100.00
2023-02-08T01:36:50.733Z,100.00
2023-02-08T01:37:32.421Z,100.00
2023-02-08T01:38:14.021Z,100.00
2023-02-08T01:38:56.173Z,100.00
2023-02-08T01:39:39.565Z,100.00
2023-02-08T01:40:21.242Z,100.00
2023-02-08T01:41:04.449Z,100.00
2023-02-08T01:41:46.768Z,100.00
2023-02-08T01:42:29.743Z,100.00
2023-02-08T01:43:27.793Z,100.00
2023-02-08T01:44:12.113Z,100.00
2023-02-08T01:45:15.567Z,100.00
2023-02-08T01:45:57.775Z,100.00
2023-02-08T01:46:44.803Z,100.00
2023-02-08T01:47:27.432Z,100.00
2023-02-08T01:48:13.623Z,100.00
2023-02-08T01:48:59.477Z,100.00
2023-02-08T01:49:41.128Z,100.00
2023-02-08T01:50:30.113Z,100.00
2023-02-08T01:51:17.905Z,100.00
2023-02-08T01:52:08.772Z,100.00
2023-02-08T01:52:51.249Z,100.00
2023-02-08T01:53:34.619Z,100.00
2023-02-08T01:54:19.274Z,100.00
2023-02-08T01:55:08.627Z,100.00
2023-02-08T01:55:53.613Z,100.00
2023-02-08T01:56:39.086Z,100.00
2023-02-08T01:57:22.025Z,100.00
2023-02-08T01:58:07.902Z,100.00
2023-02-08T01:58:54.040Z,100.00
2023-02-08T02:00:04.396Z,100.00
2023-02-08T02:00:55.708Z,100.00
2023-02-08T02:01:39.173Z,100.00
2023-02-08T02:02:22.887Z,100.00
2023-02-08T02:03:06.069Z,100.00
2023-02-08T02:03:47.776Z,100.00
2023-02-08T02:04:30.514Z,100.00
2023-02-08T02:05:13.457Z,100.00
2023-02-08T02:06:10.101Z,100.00
2023-02-08T02:06:59.155Z,100.00
2023-02-08T02:07:41.023Z,100.00
2023-02-08T02:08:22.777Z,100.00
2023-02-08T02:09:16.705Z,100.00
2023-02-08T02:10:01.788Z,100.00
2023-02-08T02:10:43.913Z,100.00
2023-02-08T02:11:25.702Z,100.00
2023-02-08T02:12:09.452Z,100.00
2023-02-08T02:12:52.217Z,100.00
2023-02-08T02:13:36.985Z,100.00
2023-02-08T02:14:18.872Z,100.00
2023-02-08T02:15:01.919Z,100.00
2023-02-08T02:15:46.081Z,100.00
2023-02-08T02:16:27.840Z,100.00
2023-02-08T02:17:12.509Z,100.00
2023-02-08T02:17:56.702Z,100.00
2023-02-08T02:18:38.632Z,100.00
2023-02-08T02:19:40.200Z,100.00
2023-02-08T02:20:38.408Z,100.00
2023-02-08T02:21:32.313Z,100.00
2023-02-08T02:22:29.081Z,100.00
2023-02-08T02:23:28.613Z,100.00
2023-02-08T02:24:39.380Z,100.00
2023-02-08T02:25:58.630Z,100.00
2023-02-08T02:27:37.304Z,100.00
2023-02-08T02:29:13.158Z,100.00
2023-02-08T02:30:00.770Z,100.00
2023-02-08T02:31:07.815Z,100.00
2023-02-08T02:32:04.703Z,100.00
2023-02-08T02:33:23.060Z,100.00
2023-02-08T02:34:31.936Z,100.00
2023-02-08T02:35:52.346Z,100.00
2023-02-08T02:36:52.589Z,100.00
2023-02-08T02:37:53.129Z,100.00
2023-02-08T02:38:47.014Z,100.00
2023-02-08T02:39:41.354Z,100.00
2023-02-08T02:40:38.149Z,100.00
2023-02-08T02:42:00.782Z,100.00
2023-02-08T02:43:25.723Z,100.00
2023-02-08T02:44:17.117Z,100.00
2023-02-08T02:45:11.037Z,100.00
2023-02-08T02:46:00.517Z,100.00
2023-02-08T02:46:47.099Z,100.00
2023-02-08T02:47:43.229Z,100.00
2023-02-08T02:48:37.073Z,100.00
2023-02-08T02:49:27.465Z,100.00
2023-02-08T02:50:14.949Z,100.00
2023-02-08T02:51:15.151Z,100.00
2023-02-08T02:52:06.737Z,100.00
2023-02-08T02:53:18.002Z,100.00
2023-02-08T02:54:06.691Z,100.00
2023-02-08T02:54:53.213Z,100.00
2023-02-08T02:55:41.087Z,100.00
2023-02-08T02:56:27.123Z,100.00
2023-02-08T02:57:12.638Z,100.00
2023-02-08T02:57:57.849Z,100.00
2023-02-08T02:58:41.065Z,100.00
2023-02-08T02:59:23.052Z,100.00
2023-02-08T03:00:10.280Z,100.00
2023-02-08T03:00:57.867Z,100.00
2023-02-08T03:01:40.289Z,100.00
2023-02-08T03:02:22.180Z,100.00
2023-02-08T03:03:03.826Z,100.00
2023-02-08T03:03:45.507Z,100.00
2023-02-08T03:04:33.305Z,100.00
2023-02-08T03:05:15.069Z,100.00
2023-02-08T03:06:07.033Z,100.00
2023-02-08T03:06:48.923Z,100.00
2023-02-08T03:07:52.216Z,100.00
2023-02-08T03:08:52.458Z,100.00
2023-02-08T03:10:03.260Z,100.00
2023-02-08T03:11:02.896Z,100.00
2023-02-08T03:12:01.949Z,100.00
2023-02-08T03:12:56.279Z,100.00
2023-02-08T03:13:59.615Z,100.00
2023-02-08T03:15:15.422Z,100.00
2023-02-08T03:16:26.637Z,100.00
2023-02-08T03:17:35.326Z,100.00
2023-02-08T03:18:16.876Z,100.00
2023-02-08T03:19:22.405Z,100.00
2023-02-08T03:20:17.731Z,100.00
2023-02-08T03:21:05.248Z,100.00
2023-02-08T03:21:55.507Z,100.00
2023-02-08T03:22:50.811Z,100.00
2023-02-08T03:23:41.397Z,100.00
2023-02-08T03:24:29.515Z,100.00
2023-02-08T03:25:21.248Z,100.00
2023-02-08T03:26:15.214Z,100.00
2023-02-08T03:27:08.658Z,100.00
2023-02-08T03:28:07.513Z,100.00
2023-02-08T03:29:30.711Z,100.00
2023-02-08T03:30:17.277Z,100.00
2023-02-08T03:31:13.033Z,100.00
2023-02-08T03:32:06.638Z,100.00
2023-02-08T03:33:05.021Z,100.00
2023-02-08T03:33:54.151Z,100.00
2023-02-08T03:34:41.790Z,100.00
2023-02-08T03:35:37.910Z,100.00
2023-02-08T03:36:51.725Z,100.00
2023-02-08T03:37:38.644Z,100.00
2023-02-08T03:38:34.988Z,100.00
2023-02-08T03:39:23.886Z,100.00
2023-02-08T03:40:46.889Z,100.00
2023-02-08T03:41:34.932Z,100.00
2023-02-08T03:42:23.113Z,100.00
2023-02-08T03:43:12.979Z,100.00
2023-02-08T03:44:00.252Z,100.00
2023-02-08T03:44:47.605Z,100.00
2023-02-08T03:45:44.617Z,100.00
2023-02-08T03:46:34.987Z,100.00
2023-02-08T03:47:22.154Z,100.00
2023-02-08T03:48:08.779Z,100.00
2023-02-08T03:48:57.172Z,100.00
2023-02-08T03:49:39.400Z,100.00
2023-02-08T03:50:22.490Z,100.00
2023-02-08T03:51:05.996Z,100.00
2023-02-08T03:51:49.226Z,100.00
2023-02-08T03:52:32.689Z,100.00
2023-02-08T03:53:19.169Z,100.00
2023-02-08T03:54:04.781Z,100.00
2023-02-08T03:55:13.356Z,100.00
2023-02-08T03:56:03.643Z,100.00
2023-02-08T03:56:52.456Z,100.00
2023-02-08T03:57:41.329Z,100.00
2023-02-08T03:58:32.412Z,100.00
2023-02-08T03:59:20.169Z,100.00
2023-02-08T04:00:14.511Z,100.00
2023-02-08T04:01:03.900Z,100.00
2023-02-08T04:01:52.230Z,100.00
2023-02-08T04:02:39.799Z,100.00
2023-02-08T04:03:27.900Z,100.00
2023-02-08T04:04:11.481Z,100.00
2023-02-08T04:04:55.470Z,100.00
2023-02-08T04:05:37.186Z,100.00
2023-02-08T04:06:18.815Z,100.00
2023-02-08T04:07:00.549Z,100.00
2023-02-08T04:07:42.183Z,100.00
2023-02-08T04:08:25.740Z,100.00
2023-02-08T04:09:07.685Z,100.00
2023-02-08T04:09:49.375Z,100.00
2023-02-08T04:10:31.113Z,100.00
2023-02-08T04:11:12.773Z,100.00
2023-02-08T04:11:54.682Z,100.00
2023-02-08T04:12:36.498Z,100.00
2023-02-08T04:13:18.287Z,100.00
2023-02-08T04:13:59.967Z,100.00
2023-02-08T04:14:41.642Z,100.00
2023-02-08T04:15:23.410Z,100.00
2023-02-08T04:16:05.588Z,100.00
2023-02-08T04:16:47.307Z,100.00
2023-02-08T04:17:29.027Z,100.00
2023-02-08T04:18:10.784Z,100.00
2023-02-08T04:18:52.398Z,100.00
2023-02-08T04:19:34.092Z,100.00
2023-02-08T04:20:15.786Z,100.00
2023-02-08T04:20:57.567Z,100.00
2023-02-08T04:21:39.223Z,100.00
2023-02-08T04:22:20.866Z,100.00
2023-02-08T04:23:02.481Z,100.00
2023-02-08T04:23:44.092Z,100.00
2023-02-08T04:24:25.854Z,100.00
2023-02-08T04:25:07.656Z,100.00
2023-02-08T04:25:49.268Z,100.00
2023-02-08T04:26:30.898Z,100.00
2023-02-08T04:27:12.811Z,100.00
2023-02-08T04:27:54.969Z,100.00
2023-02-08T04:28:36.643Z,100.00
2023-02-08T04:29:18.479Z,100.00
2023-02-08T04:30:00.137Z,100.00
2023-02-08T04:30:42.014Z,100.00
2023-02-08T04:31:23.980Z,100.00
2023-02-08T04:32:08.173Z,100.00
2023-02-08T04:32:49.931Z,100.00
2023-02-08T04:33:31.603Z,100.00
2023-02-08T04:34:13.329Z,100.00
2023-02-08T04:34:55.006Z,100.00
2023-02-08T04:35:36.683Z,100.00
2023-02-08T04:36:18.800Z,100.00
2023-02-08T04:37:00.638Z,100.00
2023-02-08T04:37:42.243Z,100.00
2023-02-08T04:38:23.891Z,100.00
2023-02-08T04:39:05.804Z,100.00
2023-02-08T04:39:47.499Z,100.00
2023-02-08T04:40:29.356Z,100.00
2023-02-08T04:41:11.411Z,100.00
2023-02-08T04:41:53.070Z,100.00
2023-02-08T04:42:35.198Z,100.00
2023-02-08T04:43:16.853Z,100.00
2023-02-08T04:43:58.574Z,100.00
2023-02-08T04:44:40.350Z,100.00
2023-02-08T04:45:22.065Z,100.00
2023-02-08T04:46:04.140Z,100.00
2023-02-08T04:46:45.865Z,100.00
2023-02-08T04:47:27.447Z,100.00
2023-02-08T04:48:10.478Z,100.00
2023-02-08T04:48:53.460Z,100.00
2023-02-08T04:49:35.127Z,100.00
2023-02-08T04:50:17.013Z,100.00
2023-02-08T04:50:59.176Z,100.00
2023-02-08T04:51:40.901Z,100.00
2023-02-08T04:52:22.848Z,100.00
2023-02-08T04:53:04.507Z,100.00
2023-02-08T04:53:46.245Z,100.00
2023-02-08T04:54:28.137Z,100.00
2023-02-08T04:55:09.884Z,100.00
2023-02-08T04:55:52.157Z,100.00
2023-02-08T04:56:33.806Z,100.00
2023-02-08T04:57:15.665Z,100.00
2023-02-08T04:57:57.901Z,100.00
2023-02-08T04:58:39.569Z,100.00
2023-02-08T04:59:21.224Z,100.00
2023-02-08T05:00:03.974Z,100.00
2023-02-08T05:00:46.089Z,100.00
2023-02-08T05:01:27.762Z,100.00
2023-02-08T05:02:09.880Z,100.00
2023-02-08T05:02:57.089Z,100.00
2023-02-08T05:03:38.847Z,100.00
2023-02-08T05:04:20.600Z,100.00
2023-02-08T05:05:02.321Z,100.00
2023-02-08T05:05:44.057Z,100.00
2023-02-08T05:06:25.850Z,100.00
2023-02-08T05:07:07.497Z,100.00
2023-02-08T05:07:49.211Z,100.00
2023-02-08T05:08:30.902Z,100.00
2023-02-08T05:09:12.515Z,100.00
2023-02-08T05:09:54.143Z,100.00
2023-02-08T05:10:35.797Z,100.00
2023-02-08T05:11:25.456Z,100.00
2023-02-08T05:12:07.186Z,100.00
2023-02-08T05:12:48.863Z,100.00
2023-02-08T05:13:30.939Z,100.00
2023-02-08T05:14:12.605Z,100.00
2023-02-08T05:14:54.271Z,100.00
2023-02-08T05:15:35.950Z,100.00
2023-02-08T05:16:17.671Z,100.00
2023-02-08T05:16:59.420Z,100.00
2023-02-08T05:17:41.202Z,100.00
2023-02-08T05:18:22.908Z,100.00
2023-02-08T05:19:04.564Z,100.00
2023-02-08T05:19:46.238Z,100.00
2023-02-08T05:20:28.295Z,100.00
2023-02-08T05:21:10.541Z,100.00
2023-02-08T05:21:52.267Z,100.00
2023-02-08T05:22:34.210Z,100.00
2023-02-08T05:23:15.860Z,100.00
2023-02-08T05:23:57.508Z,100.00
2023-02-08T05:24:39.195Z,100.00
2023-02-08T05:25:20.934Z,100.00
2023-02-08T05:26:10.303Z,100.00
2023-02-08T05:26:52.171Z,100.00
2023-02-08T05:27:34.964Z,100.00
2023-02-08T05:28:17.355Z,100.00
2023-02-08T05:28:59.126Z,100.00
2023-02-08T05:29:40.810Z,100.00
2023-02-08T05:30:22.631Z,100.00
2023-02-08T05:31:24.940Z,100.00
2023-02-08T05:32:07.407Z,100.00
2023-02-08T05:32:49.334Z,100.00
2023-02-08T05:33:31.005Z,100.00
2023-02-08T05:34:12.712Z,100.00
2023-02-08T05:34:54.460Z,100.00
2023-02-08T05:35:36.161Z,100.00
2023-02-08T05:36:19.015Z,100.00
2023-02-08T05:37:00.656Z,100.00
2023-02-08T05:37:42.421Z,100.00
2023-02-08T05:38:24.025Z,100.00
2023-02-08T05:39:06.072Z,100.00
2023-02-08T05:39:47.714Z,100.00
2023-02-08T05:40:29.553Z,100.00
2023-02-08T05:41:11.258Z,100.00
2023-02-08T05:41:52.924Z,100.00
2023-02-08T05:42:34.601Z,100.00
2023-02-08T05:43:16.433Z,100.00
2023-02-08T05:43:58.223Z,100.00
2023-02-08T05:44:39.976Z,100.00
2023-02-08T05:45:21.903Z,100.00
2023-02-08T05:46:03.703Z,100.00
2023-02-08T05:46:45.345Z,100.00
2023-02-08T05:47:27.123Z,100.00
2023-02-08T05:48:08.739Z,100.00
2023-02-08T05:48:50.403Z,100.00
2023-02-08T05:49:32.179Z,100.00
2023-02-08T05:50:14.486Z,100.00
2023-02-08T05:50:56.829Z,100.00
2023-02-08T05:51:38.592Z,100.00
2023-02-08T05:52:20.278Z,100.00
2023-02-08T05:53:02.074Z,100.00
2023-02-08T05:53:45.341Z,100.00
2023-02-08T05:54:27.100Z,100.00
2023-02-08T05:55:08.994Z,100.00
2023-02-08T05:55:50.925Z,100.00
2023-02-08T05:56:33.081Z,100.00
2023-02-08T05:57:14.892Z,100.00
2023-02-08T05:57:56.551Z,100.00
2023-02-08T05:58:38.306Z,100.00
2023-02-08T05:59:19.999Z,100.00
2023-02-08T06:00:01.727Z,100.00
2023-02-08T06:00:43.805Z,100.00
2023-02-08T06:01:25.479Z,100.00
2023-02-08T06:02:07.240Z,100.00
2023-02-08T06:02:49.107Z,100.00
2023-02-08T06:03:30.812Z,100.00
2023-02-08T06:04:12.732Z,100.00
2023-02-08T06:04:54.474Z,100.00
2023-02-08T06:05:38.640Z,100.00
2023-02-08T06:06:20.964Z,100.00
2023-02-08T06:07:02.689Z,100.00
2023-02-08T06:07:44.370Z,100.00
2023-02-08T06:08:26.067Z,100.00
2023-02-08T06:09:07.775Z,100.00
2023-02-08T06:09:49.430Z,100.00
2023-02-08T06:10:31.141Z,100.00
2023-02-08T06:11:13.395Z,100.00
2023-02-08T06:11:55.031Z,100.00
2023-02-08T06:12:36.698Z,100.00
2023-02-08T06:13:18.340Z,100.00
2023-02-08T06:14:00.172Z,100.00
2023-02-08T06:14:41.970Z,100.00
2023-02-08T06:15:23.683Z,100.00
2023-02-08T06:16:06.721Z,100.00
2023-02-08T06:16:48.590Z,100.00
2023-02-08T06:17:30.344Z,100.00
2023-02-08T06:18:12.022Z,100.00
2023-02-08T06:18:53.673Z,100.00
2023-02-08T06:19:35.307Z,100.00
2023-02-08T06:20:17.250Z,100.00
2023-02-08T06:20:58.936Z,100.00
2023-02-08T06:21:42.138Z,100.00
2023-02-08T06:22:24.530Z,100.00
2023-02-08T06:23:06.221Z,100.00
2023-02-08T06:23:47.893Z,100.00
2023-02-08T06:24:29.681Z,100.00
2023-02-08T06:25:11.471Z,100.00
2023-02-08T06:25:53.569Z,100.00
2023-02-08T06:26:35.325Z,100.00
2023-02-08T06:27:17.288Z,100.00
2023-02-08T06:27:58.947Z,100.00
2023-02-08T06:28:40.664Z,100.00
2023-02-08T06:29:22.452Z,100.00
2023-02-08T06:30:04.460Z,100.00
2023-02-08T06:30:46.322Z,100.00
2023-02-08T06:31:28.104Z,100.00
2023-02-08T06:32:11.427Z,100.00
2023-02-08T06:32:53.132Z,100.00
2023-02-08T06:33:34.940Z,100.00
2023-02-08T06:34:16.678Z,100.00
2023-02-08T06:34:58.388Z,100.00
2023-02-08T06:35:40.022Z,100.00
2023-02-08T06:36:21.744Z,100.00
2023-02-08T06:37:05.588Z,100.00
2023-02-08T06:37:47.264Z,100.00
2023-02-08T06:38:28.956Z,100.00
2023-02-08T06:39:10.573Z,100.00
2023-02-08T06:39:52.214Z,100.00
2023-02-08T06:40:33.834Z,100.00
2023-02-08T06:41:15.617Z,100.00
2023-02-08T06:41:57.631Z,100.00
2023-02-08T06:42:39.318Z,100.00
2023-02-08T06:43:21.016Z,100.00
2023-02-08T06:44:02.791Z,100.00
2023-02-08T06:44:54.476Z,100.00
2023-02-08T06:45:36.579Z,100.00
2023-02-08T06:46:18.351Z,100.00
2023-02-08T06:47:00.100Z,100.00
2023-02-08T06:47:42.116Z,100.00
2023-02-08T06:48:23.909Z,100.00
2023-02-08T06:49:05.610Z,100.00
2023-02-08T06:49:47.280Z,100.00
2023-02-08T06:50:28.957Z,100.00
2023-02-08T06:51:10.572Z,100.00
2023-02-08T06:51:52.235Z,100.00
2023-02-08T06:52:33.912Z,100.00
2023-02-08T06:53:15.595Z,100.00
2023-02-08T06:53:57.235Z,100.00
2023-02-08T06:54:38.885Z,100.00
2023-02-08T06:55:20.529Z,100.00
2023-02-08T06:56:02.264Z,100.00
2023-02-08T06:56:44.002Z,100.00
2023-02-08T06:57:25.965Z,100.00
2023-02-08T06:58:07.641Z,100.00
2023-02-08T06:58:49.319Z,100.00
2023-02-08T06:59:31.097Z,100.00
2023-02-08T07:00:13.276Z,100.00
2023-02-08T07:00:54.935Z,100.00
2023-02-08T07:01:36.805Z,100.00
2023-02-08T07:02:20.917Z,100.00
2023-02-08T07:03:02.626Z,100.00
2023-02-08T07:03:44.363Z,100.00
2023-02-08T07:04:26.178Z,100.00
2023-02-08T07:05:08.076Z,100.00
2023-02-08T07:06:04.240Z,100.00
2023-02-08T07:06:52.462Z,100.00
2023-02-08T07:07:34.211Z,100.00
2023-02-08T07:08:16.071Z,100.00
2023-02-08T07:08:57.801Z,100.00
2023-02-08T07:09:39.826Z,100.00
2023-02-08T07:10:21.675Z,100.00
2023-02-08T07:11:11.640Z,100.00
2023-02-08T07:11:53.407Z,100.00
2023-02-08T07:12:36.463Z,100.00
2023-02-08T07:13:18.181Z,100.00
2023-02-08T07:14:00.003Z,100.00
2023-02-08T07:14:43.496Z,100.00
2023-02-08T07:15:25.144Z,100.00
2023-02-08T07:16:08.307Z,100.00
2023-02-08T07:16:49.983Z,100.00
2023-02-08T07:17:31.713Z,100.00
2023-02-08T07:18:13.406Z,100.00
2023-02-08T07:18:55.119Z,100.00
2023-02-08T07:19:47.370Z,100.00
2023-02-08T07:20:48.863Z,100.00
2023-02-08T07:21:30.651Z,100.00
2023-02-08T07:22:12.423Z,100.00
2023-02-08T07:22:54.237Z,100.00
2023-02-08T07:23:35.975Z,100.00
2023-02-08T07:24:17.739Z,100.00
2023-02-08T07:24:59.497Z,100.00
2023-02-08T07:25:41.135Z,100.00
2023-02-08T07:26:22.798Z,100.00
2023-02-08T07:27:05.706Z,100.00
2023-02-08T07:27:47.413Z,100.00
2023-02-08T07:28:29.519Z,100.00
2023-02-08T07:29:11.216Z,100.00
2023-02-08T07:29:53.003Z,100.00
2023-02-08T07:30:34.716Z,100.00
2023-02-08T07:31:18.080Z,100.00
2023-02-08T07:32:01.260Z,100.00
2023-02-08T07:32:43.013Z,100.00
2023-02-08T07:33:25.515Z,100.00
2023-02-08T07:34:07.281Z,100.00
2023-02-08T07:34:48.954Z,100.00
2023-02-08T07:35:30.607Z,100.00
2023-02-08T07:36:12.543Z,100.00
2023-02-08T07:36:54.213Z,100.00
2023-02-08T07:37:35.860Z,100.00
2023-02-08T07:38:20.638Z,100.00
2023-02-08T07:39:02.968Z,100.00
2023-02-08T07:39:44.656Z,100.00
2023-02-08T07:40:26.427Z,100.00
2023-02-08T07:41:11.056Z,100.00
2023-02-08T07:41:53.126Z,100.00
2023-02-08T07:42:35.225Z,100.00
2023-02-08T07:43:27.358Z,100.00
2023-02-08T07:44:13.897Z,100.00
2023-02-08T07:44:55.562Z,100.00
2023-02-08T07:45:38.741Z,100.00
2023-02-08T07:46:21.852Z,100.00
2023-02-08T07:47:04.534Z,100.00
2023-02-08T07:47:46.651Z,100.00
2023-02-08T07:48:28.411Z,100.00
2023-02-08T07:49:10.189Z,100.00
2023-02-08T07:49:51.841Z,100.00
2023-02-08T07:50:33.612Z,100.00
2023-02-08T07:51:15.662Z,100.00
2023-02-08T07:51:57.292Z,100.00
2023-02-08T07:52:38.962Z,100.00
2023-02-08T07:53:20.641Z,100.00
2023-02-08T07:54:02.762Z,100.00
2023-02-08T07:54:44.512Z,100.00
2023-02-08T07:55:27.558Z,100.00
2023-02-08T07:56:10.449Z,100.00
2023-02-08T07:56:53.036Z,100.00
2023-02-08T07:57:35.511Z,100.00
2023-02-08T07:58:17.215Z,100.00
2023-02-08T07:58:59.141Z,100.00
2023-02-08T07:59:40.845Z,100.00
2023-02-08T08:00:22.900Z,100.00
2023-02-08T08:01:19.683Z,100.00
2023-02-08T08:02:03.768Z,100.00
2023-02-08T08:02:56.111Z,100.00
2023-02-08T08:03:38.200Z,100.00
2023-02-08T08:04:20.162Z,100.00
2023-02-08T08:05:01.886Z,100.00
2023-02-08T08:05:43.590Z,100.00
2023-02-08T08:06:25.277Z,100.00
2023-02-08T08:07:06.940Z,100.00
2023-02-08T08:07:48.603Z,100.00
2023-02-08T08:08:30.464Z,100.00
2023-02-08T08:09:12.304Z,100.00
2023-02-08T08:09:54.076Z,100.00
2023-02-08T08:10:36.084Z,100.00
2023-02-08T08:11:20.025Z,100.00
2023-02-08T08:12:02.713Z,100.00
2023-02-08T08:12:44.434Z,100.00
2023-02-08T08:13:26.166Z,100.00
2023-02-08T08:14:07.882Z,100.00
2023-02-08T08:14:50.136Z,100.00
2023-02-08T08:15:31.936Z,100.00
2023-02-08T08:16:13.669Z,100.00
2023-02-08T08:16:55.440Z,100.00
2023-02-08T08:17:37.196Z,100.00
2023-02-08T08:18:18.906Z,100.00
2023-02-08T08:19:00.568Z,100.00
2023-02-08T08:19:42.326Z,100.00
2023-02-08T08:20:24.301Z,100.00
2023-02-08T08:21:06.586Z,100.00
2023-02-08T08:21:48.281Z,100.00
2023-02-08T08:22:30.001Z,100.00
2023-02-08T08:23:11.701Z,100.00
2023-02-08T08:23:55.406Z,100.00
2023-02-08T08:24:37.540Z,100.00
2023-02-08T08:25:19.400Z,100.00
2023-02-08T08:26:01.085Z,100.00
2023-02-08T08:26:42.921Z,100.00
2023-02-08T08:27:24.612Z,100.00
2023-02-08T08:28:06.328Z,100.00
2023-02-08T08:28:49.044Z,100.00
2023-02-08T08:29:34.899Z,100.00
2023-02-08T08:30:17.294Z,100.00
2023-02-08T08:30:59.218Z,100.00
2023-02-08T08:31:42.885Z,100.00
2023-02-08T08:32:24.584Z,100.00
2023-02-08T08:33:06.974Z,100.00
2023-02-08T08:33:49.517Z,100.00
2023-02-08T08:34:31.665Z,100.00
2023-02-08T08:35:13.573Z,100.00
2023-02-08T08:35:55.282Z,100.00
2023-02-08T08:36:37.022Z,100.00
2023-02-08T08:37:18.782Z,100.00
2023-02-08T08:38:00.485Z,100.00
2023-02-08T08:38:42.262Z,100.00
2023-02-08T08:39:24.692Z,100.00
2023-02-08T08:40:07.899Z,100.00
2023-02-08T08:40:49.532Z,97.29
2023-02-08T08:41:31.304Z,97.35
2023-02-08T08:42:13.091Z,95.01
2023-02-08T08:42:54.777Z,92.63
2023-02-08T08:43:36.491Z,93.46
2023-02-08T08:44:18.185Z,94.77
2023-02-08T08:44:59.988Z,91.89
2023-02-08T08:45:41.700Z,91.51
2023-02-08T08:46:23.477Z,90.14
2023-02-08T08:47:06.164Z,90.36
2023-02-08T08:47:47.872Z,90.47
2023-02-08T08:48:29.719Z,90.69
2023-02-08T08:49:11.530Z,90.68
2023-02-08T08:49:53.327Z,90.54
2023-02-08T08:50:34.965Z,89.66
2023-02-08T08:51:16.651Z,90.34
2023-02-08T08:51:58.438Z,90.34
2023-02-08T08:52:40.789Z,88.50
2023-02-08T08:53:23.146Z,86.40
2023-02-08T08:54:05.621Z,86.24
2023-02-08T08:54:47.393Z,87.38
2023-02-08T08:55:29.152Z,86.90
2023-02-08T08:56:11.106Z,87.42
2023-02-08T08:56:52.852Z,85.62
2023-02-08T08:57:34.886Z,85.40
2023-02-08T08:58:16.916Z,84.69
2023-02-08T08:58:59.055Z,84.65
2023-02-08T08:59:40.970Z,84.22
2023-02-08T09:00:23.084Z,85.28
2023-02-08T09:01:04.935Z,84.27
2023-02-08T09:01:46.764Z,81.27
2023-02-08T09:02:28.776Z,81.34
2023-02-08T09:03:10.672Z,82.09
2023-02-08T09:03:52.485Z,80.88
2023-02-08T09:04:34.374Z,82.29
2023-02-08T09:05:16.073Z,84.38
2023-02-08T09:05:57.825Z,84.58
2023-02-08T09:06:39.541Z,80.34
2023-02-08T09:07:21.313Z,82.24
2023-02-08T09:08:03.520Z,79.36
2023-02-08T09:08:45.146Z,79.58
2023-02-08T09:09:26.874Z,79.17
2023-02-08T09:10:08.868Z,77.33
2023-02-08T09:10:50.851Z,74.92
2023-02-08T09:11:33.301Z,75.33
2023-02-08T09:12:15.980Z,76.18
2023-02-08T09:12:58.909Z,76.28
2023-02-08T09:13:41.521Z,75.13
2023-02-08T09:14:23.193Z,74.84
2023-02-08T09:15:05.370Z,75.55
2023-02-08T09:15:48.335Z,76.11
2023-02-08T09:16:30.298Z,77.10
2023-02-08T09:17:12.292Z,75.77